createdAt,value
2018-12-16T00:00:59.725Z,31.40
2018-12-16T00:06:04.329Z,33.63
2018-12-16T00:11:06.867Z,34.93
2018-12-16T00:16:09.050Z,33.67
2018-12-16T00:26:20.448Z,33.07
2018-12-16T00:31:22.633Z,33.50
2018-12-16T00:36:25.214Z,34.70
2018-12-16T00:41:27.377Z,34.33
2018-12-16T00:46:29.678Z,35.03
2018-12-16T00:51:31.837Z,34.10
2018-12-16T00:56:34.012Z,34.53
2018-12-16T01:01:36.759Z,34.47
2018-12-16T01:06:39.298Z,34.17
2018-12-16T01:11:42.121Z,34.03
2018-12-16T01:16:44.311Z,33.57
2018-12-16T01:21:46.354Z,31.60
2018-12-16T01:26:53.453Z,32.57
2018-12-16T01:31:55.560Z,33.70
2018-12-16T01:36:57.898Z,33.13
2018-12-16T01:42:00.077Z,34.20
2018-12-16T01:47:02.546Z,32.17
2018-12-16T01:52:04.706Z,33.40
2018-12-16T01:57:07.043Z,34.10
2018-12-16T02:02:09.221Z,34.00
2018-12-16T02:07:11.348Z,35.23
2018-12-16T02:12:13.650Z,34.57
2018-12-16T02:17:15.830Z,33.73
2018-12-16T02:22:18.012Z,33.13
2018-12-16T02:27:20.274Z,34.77
2018-12-16T02:32:22.468Z,34.80
2018-12-16T02:37:24.658Z,35.00
2018-12-16T02:42:26.850Z,33.63
2018-12-16T02:47:28.911Z,34.20
2018-12-16T02:52:30.982Z,35.60
2018-12-16T02:57:33.157Z,34.23
2018-12-16T03:02:35.453Z,35.97
2018-12-16T03:07:38.444Z,34.97
2018-12-16T03:12:40.543Z,34.50
2018-12-16T03:17:42.811Z,35.53
2018-12-16T03:22:45.683Z,34.93
2018-12-16T03:27:47.792Z,37.20
2018-12-16T03:32:49.973Z,34.87
2018-12-16T03:37:52.029Z,34.43
2018-12-16T03:42:54.346Z,36.47
2018-12-16T03:47:56.527Z,34.70
2018-12-16T03:52:58.576Z,35.13
2018-12-16T03:58:00.786Z,34.80
2018-12-16T04:03:03.070Z,35.27
2018-12-16T04:08:05.534Z,36.37
2018-12-16T04:13:07.741Z,35.13
2018-12-16T04:18:10.020Z,33.43
2018-12-16T04:23:12.307Z,32.67
2018-12-16T04:28:21.613Z,33.37
2018-12-16T04:33:23.694Z,32.37
2018-12-16T04:38:25.903Z,34.47
2018-12-16T04:43:28.021Z,33.17
2018-12-16T04:48:30.083Z,32.53
2018-12-16T04:53:36.919Z,32.23
2018-12-16T04:58:36.479Z,32.13
2018-12-16T05:03:38.582Z,29.70
2018-12-16T05:08:40.733Z,29.73
2018-12-16T05:13:43.100Z,28.77
2018-12-16T05:18:45.258Z,30.10
2018-12-16T05:23:47.326Z,28.80
2018-12-16T05:28:49.497Z,25.20
2018-12-16T05:33:51.654Z,27.87
2018-12-16T05:38:53.783Z,25.80
2018-12-16T05:43:56.049Z,28.03
2018-12-16T05:48:58.106Z,27.40
2018-12-16T05:54:00.166Z,26.73
2018-12-16T05:59:02.353Z,26.60
2018-12-16T06:04:04.750Z,25.47
2018-12-16T06:09:07.093Z,25.27
2018-12-16T06:14:10.256Z,25.60
2018-12-16T06:19:12.450Z,22.67
2018-12-16T06:24:14.497Z,19.97
2018-12-16T06:29:16.803Z,18.40
2018-12-16T06:34:18.905Z,18.50
2018-12-16T06:39:21.958Z,19.00
2018-12-16T06:44:23.994Z,18.97
2018-12-16T06:49:26.065Z,18.23
2018-12-16T06:54:28.225Z,18.30
2018-12-16T06:59:30.281Z,19.67
2018-12-16T07:04:32.386Z,19.27
2018-12-16T07:09:34.717Z,18.13
2018-12-16T07:14:37.030Z,18.60
2018-12-16T07:19:39.596Z,16.27
2018-12-16T07:24:41.649Z,16.77
2018-12-16T07:29:43.687Z,17.70
2018-12-16T07:34:45.742Z,18.07
2018-12-16T07:39:48.030Z,17.10
2018-12-16T07:44:50.098Z,17.13
2018-12-16T07:49:52.495Z,19.10
2018-12-16T07:54:54.606Z,16.97
2018-12-16T07:59:56.828Z,16.63
2018-12-16T08:04:59.054Z,17.13
2018-12-16T08:10:01.447Z,16.17
2018-12-16T08:15:04.322Z,16.97
2018-12-16T08:20:07.739Z,16.80
2018-12-16T08:25:10.025Z,17.70
2018-12-16T08:30:12.309Z,18.57
2018-12-16T08:35:14.397Z,19.40
2018-12-16T08:40:16.671Z,18.70
2018-12-16T08:45:18.919Z,19.03
2018-12-16T08:50:21.177Z,18.23
2018-12-16T08:55:23.457Z,19.73
2018-12-16T09:00:25.614Z,19.27
2018-12-16T09:05:27.677Z,18.93
2018-12-16T09:10:34.112Z,18.73
2018-12-16T09:15:34.029Z,18.97
2018-12-16T09:20:36.179Z,19.43
2018-12-16T09:25:38.431Z,19.33
2018-12-16T09:30:40.618Z,18.47
2018-12-16T09:35:42.820Z,17.90
2018-12-16T09:40:45.245Z,17.87
2018-12-16T09:45:49.544Z,16.57
2018-12-16T09:50:52.121Z,16.37
2018-12-16T09:55:54.385Z,16.73
2018-12-16T10:00:56.842Z,15.20
2018-12-16T10:05:59.164Z,14.63
2018-12-16T10:11:01.856Z,15.60
2018-12-16T10:16:04.256Z,16.50
2018-12-16T10:21:06.916Z,15.27
2018-12-16T10:26:09.150Z,15.07
2018-12-16T10:31:11.305Z,14.57
2018-12-16T10:36:13.478Z,15.23
2018-12-16T10:41:15.554Z,15.70
2018-12-16T10:46:17.777Z,16.97
2018-12-16T10:51:19.961Z,16.73
2018-12-16T10:56:22.146Z,15.93
2018-12-16T11:01:28.672Z,16.90
2018-12-16T11:06:30.958Z,18.27
2018-12-16T11:11:33.264Z,19.57
2018-12-16T11:16:35.581Z,20.03
2018-12-16T11:21:37.922Z,18.33
2018-12-16T11:26:40.946Z,19.70
2018-12-16T11:31:43.142Z,20.67
2018-12-16T11:36:45.413Z,19.10
2018-12-16T11:41:47.635Z,19.27
2018-12-16T11:46:49.854Z,18.80
2018-12-16T11:51:52.123Z,18.30
2018-12-16T11:57:11.395Z,18.07
2018-12-16T12:02:13.605Z,20.23
2018-12-16T12:07:17.770Z,18.93
2018-12-16T12:12:20.149Z,19.73
2018-12-16T12:17:22.307Z,18.17
2018-12-16T12:22:24.594Z,17.40
2018-12-16T12:27:27.052Z,18.07
2018-12-16T12:32:29.354Z,20.03
2018-12-16T12:37:31.840Z,18.23
2018-12-16T12:42:37.074Z,18.77
2018-12-16T12:47:39.245Z,16.27
2018-12-16T12:52:46.497Z,16.50
2018-12-16T12:57:48.729Z,16.83
2018-12-16T13:02:50.993Z,18.07
2018-12-16T13:07:53.086Z,19.03
2018-12-16T13:12:55.526Z,17.43
2018-12-16T13:17:57.813Z,18.23
2018-12-16T13:22:59.859Z,19.53
2018-12-16T13:28:02.162Z,18.67
2018-12-16T13:33:04.359Z,19.40
2018-12-16T13:38:06.614Z,19.57
2018-12-16T13:43:09.731Z,18.67
2018-12-16T13:48:11.882Z,19.07
2018-12-16T13:53:14.872Z,18.87
2018-12-16T13:58:17.438Z,19.63
2018-12-16T14:03:19.809Z,19.23
2018-12-16T14:08:21.990Z,19.00
2018-12-16T14:13:24.415Z,18.73
2018-12-16T14:18:26.468Z,19.60
2018-12-16T14:23:28.553Z,18.00
2018-12-16T14:28:30.594Z,18.83
2018-12-16T14:33:33.145Z,18.07
2018-12-16T14:38:35.434Z,19.53
2018-12-16T14:43:37.618Z,18.80
2018-12-16T14:48:39.687Z,19.40
2018-12-16T14:53:42.045Z,19.93
2018-12-16T14:58:44.261Z,18.70
2018-12-16T15:03:46.446Z,20.67
2018-12-16T15:09:01.716Z,18.20
2018-12-16T15:14:05.277Z,20.57
2018-12-16T15:19:07.453Z,21.63
2018-12-16T15:24:09.729Z,22.00
2018-12-16T15:29:11.817Z,25.00
2018-12-16T15:34:13.984Z,24.67
2018-12-16T15:39:16.054Z,23.60
2018-12-16T15:44:20.133Z,23.80
2018-12-16T15:49:22.221Z,23.77
2018-12-16T15:54:24.362Z,22.10
2018-12-16T15:59:26.630Z,21.20
2018-12-16T16:04:28.833Z,22.10
2018-12-16T16:09:31.003Z,23.30
2018-12-16T16:14:33.071Z,22.63
2018-12-16T16:19:35.381Z,22.23
2018-12-16T16:24:37.421Z,22.93
2018-12-16T16:29:39.726Z,21.77
2018-12-16T16:34:41.922Z,24.73
2018-12-16T16:39:50.862Z,23.03
2018-12-16T16:44:53.027Z,24.43
2018-12-16T16:49:55.089Z,24.20
2018-12-16T16:54:57.366Z,25.03
2018-12-16T16:59:59.544Z,21.77
2018-12-16T17:05:01.779Z,22.93
2018-12-16T17:10:04.991Z,23.07
2018-12-16T17:15:07.414Z,23.43
2018-12-16T17:20:09.733Z,24.60
2018-12-16T17:25:11.786Z,24.10
2018-12-16T17:30:14.046Z,24.07
2018-12-16T17:35:16.098Z,28.17
2018-12-16T17:40:18.189Z,27.13
2018-12-16T17:45:20.973Z,26.33
2018-12-16T17:50:25.154Z,25.20
2018-12-16T17:55:27.701Z,26.13
2018-12-16T18:00:36.796Z,25.33
2018-12-16T18:05:39.097Z,25.33
2018-12-16T18:10:41.322Z,23.43
2018-12-16T18:15:44.033Z,23.57
2018-12-16T18:20:46.557Z,36.87
2018-12-16T18:25:49.389Z,28.73
2018-12-16T18:30:53.379Z,30.00
2018-12-16T18:35:55.969Z,39.27
2018-12-16T18:40:58.546Z,33.83
2018-12-16T18:46:00.908Z,26.00
2018-12-16T18:51:03.629Z,25.27
2018-12-16T18:56:05.978Z,25.23
2018-12-16T19:01:08.099Z,23.47
2018-12-16T19:06:10.138Z,35.37
2018-12-16T19:11:12.343Z,33.30
2018-12-16T19:16:14.405Z,37.00
2018-12-16T19:21:16.581Z,33.50
2018-12-16T19:26:18.775Z,30.17
2018-12-16T19:31:22.903Z,24.57
2018-12-16T19:36:25.058Z,27.70
2018-12-16T19:41:28.110Z,22.30
2018-12-16T19:46:30.203Z,23.47
2018-12-16T19:51:33.127Z,22.50
2018-12-16T19:56:36.161Z,22.00
2018-12-16T20:01:43.330Z,21.73
2018-12-16T20:06:47.188Z,22.10
2018-12-16T20:11:50.052Z,21.97
2018-12-16T20:16:52.946Z,22.73
2018-12-16T20:21:55.138Z,20.97
2018-12-16T20:26:58.273Z,23.13
2018-12-16T20:32:00.906Z,22.17
2018-12-16T20:37:03.933Z,21.87
2018-12-16T20:42:06.034Z,21.83
2018-12-16T20:47:08.889Z,20.80
2018-12-16T20:52:11.217Z,20.77
2018-12-16T20:57:18.834Z,21.83
2018-12-16T21:02:18.027Z,19.90
2018-12-16T21:07:27.317Z,21.03
2018-12-16T21:12:39.006Z,22.30
2018-12-16T21:17:47.474Z,21.40
2018-12-16T21:22:50.717Z,19.77
2018-12-16T21:27:53.466Z,20.90
2018-12-16T21:32:56.681Z,20.33
2018-12-16T21:37:59.948Z,20.83
2018-12-16T21:43:03.430Z,21.77
2018-12-16T21:48:05.647Z,20.57
2018-12-16T21:53:09.122Z,21.43
2018-12-16T21:58:11.194Z,21.27
2018-12-16T22:03:13.337Z,22.20
2018-12-16T22:08:15.437Z,20.47
2018-12-16T22:13:17.649Z,21.43
2018-12-16T22:18:19.933Z,20.63
2018-12-16T22:23:22.089Z,22.30
2018-12-16T22:28:24.171Z,22.67
2018-12-16T22:33:26.213Z,21.20
2018-12-16T22:38:28.270Z,21.73
2018-12-16T22:43:32.373Z,22.40
2018-12-16T22:48:34.714Z,23.67
2018-12-16T22:53:36.892Z,22.90
2018-12-16T22:58:39.101Z,22.10
2018-12-16T23:03:41.280Z,21.77
2018-12-16T23:08:43.553Z,21.93
2018-12-16T23:13:45.898Z,22.13
2018-12-16T23:18:49.511Z,21.83
2018-12-16T23:23:51.657Z,22.33
2018-12-16T23:28:53.950Z,23.07
2018-12-16T23:33:56.098Z,22.20
2018-12-16T23:38:58.281Z,22.90
2018-12-16T23:44:00.438Z,22.77
2018-12-16T23:49:02.732Z,21.33
2018-12-16T23:54:04.773Z,22.13
2018-12-16T23:59:06.938Z,22.80
